Time,TemperatureF,DewpointF,PressureIn,WindDirection,WindDirectionDegrees,WindSpeedMPH,WindSpeedGustMPH,Humidity,HourlyPrecipIn,Conditions,Clouds,dailyrainin,SoftwareType,DateUTC
2013-05-05 00:05:00,48.2,40.0,30.09,East,90,0.0,-999.0,73,-99.99,,,0.00,Acu-Link.com,2013-05-05 07:05:00,
2013-05-05 00:20:00,48.2,39.6,30.09,NNE,22,0.0,-999.0,72,-99.99,,,0.00,Acu-Link.com,2013-05-05 07:20:00,
2013-05-05 00:35:00,46.4,38.2,30.09,NE,45,0.0,-999.0,73,-99.99,,,0.00,Acu-Link.com,2013-05-05 07:35:00,
2013-05-05 00:50:00,44.6,37.5,30.09,ENE,67,0.0,-999.0,76,-99.99,,,0.00,Acu-Link.com,2013-05-05 07:50:00,
2013-05-05 01:05:00,44.6,38.2,30.08,ESE,112,0.0,-999.0,78,-99.99,,,0.00,Acu-Link.com,2013-05-05 08:05:00,
2013-05-05 01:20:00,44.6,38.2,30.08,ENE,67,0.0,-999.0,78,-99.99,,,0.00,Acu-Link.com,2013-05-05 08:20:00,
2013-05-05 01:35:00,44.6,38.8,30.08,ESE,112,0.0,-999.0,80,-99.99,,,0.00,Acu-Link.com,2013-05-05 08:35:00,
2013-05-05 01:51:00,42.8,37.4,30.08,South,180,0.0,-999.0,81,-99.99,,,0.00,Acu-Link.com,2013-05-05 08:51:00,
2013-05-05 02:06:00,42.8,38.3,30.08,SSE,157,0.0,-999.0,84,-99.99,,,0.00,Acu-Link.com,2013-05-05 09:06:00,
2013-05-05 02:21:00,41.0,37.1,30.08,East,90,1.1,-999.0,86,-99.99,,,0.00,Acu-Link.com,2013-05-05 09:21:00,
2013-05-05 02:36:00,41.0,37.1,30.07,South,180,0.0,-999.0,86,-99.99,,,0.00,Acu-Link.com,2013-05-05 09:36:00,
2013-05-05 02:51:00,41.0,37.4,30.08,South,180,0.0,-999.0,87,-99.99,,,0.00,Acu-Link.com,2013-05-05 09:51:00,
2013-05-05 03:06:00,39.2,36.0,30.08,ESE,112,0.0,-999.0,88,-99.99,,,0.00,Acu-Link.com,2013-05-05 10:06:00,
2013-05-05 03:21:00,37.4,34.5,30.07,ENE,67,0.0,-999.0,89,-99.99,,,0.00,Acu-Link.com,2013-05-05 10:21:00,
2013-05-05 03:36:00,37.4,36.1,30.08,NE,45,0.0,-999.0,95,-99.99,,,0.00,Acu-Link.com,2013-05-05 10:36:00,
2013-05-05 03:51:00,37.4,35.3,30.07,ESE,112,0.0,-999.0,92,-99.99,,,0.00,Acu-Link.com,2013-05-05 10:51:00,
2013-05-05 04:07:00,37.4,36.9,30.07,NE,45,0.0,-999.0,98,-99.99,,,0.00,Acu-Link.com,2013-05-05 11:07:00,
2013-05-05 04:22:00,37.4,36.9,30.07,NE,45,0.0,-999.0,98,-99.99,,,0.00,Acu-Link.com,2013-05-05 11:22:00,
2013-05-05 04:37:00,37.4,36.9,30.07,East,90,0.0,-999.0,98,-99.99,,,0.00,Acu-Link.com,2013-05-05 11:37:00,
2013-05-05 04:52:00,37.4,36.9,30.07,East,90,0.0,-999.0,98,-99.99,,,0.00,Acu-Link.com,2013-05-05 11:52:00,
2013-05-05 05:08:00,35.6,35.1,30.07,East,90,0.0,-999.0,98,-99.99,,,0.00,Acu-Link.com,2013-05-05 12:08:00,
2013-05-05 05:23:00,35.6,35.1,30.06,East,90,0.0,-999.0,98,-99.99,,,0.00,Acu-Link.com,2013-05-05 12:23:00,
2013-05-05 05:38:00,35.6,35.1,30.07,ESE,112,0.0,-999.0,98,-99.99,,,0.00,Acu-Link.com,2013-05-05 12:38:00,
2013-05-05 05:53:00,35.6,35.1,30.07,East,90,0.0,-999.0,98,-99.99,,,0.00,Acu-Link.com,2013-05-05 12:53:00,
2013-05-05 06:08:00,35.6,35.1,30.07,East,90,0.0,-999.0,98,-99.99,,,0.00,Acu-Link.com,2013-05-05 13:08:00,
2013-05-05 06:23:00,35.6,35.1,30.07,SE,135,0.0,-999.0,98,-99.99,,,0.00,Acu-Link.com,2013-05-05 13:23:00,
2013-05-05 06:38:00,35.6,35.1,30.07,SSW,202,0.0,-999.0,98,-99.99,,,0.00,Acu-Link.com,2013-05-05 13:38:00,
2013-05-05 06:53:00,35.6,35.1,30.07,NNE,22,0.0,-999.0,98,-99.99,,,0.00,Acu-Link.com,2013-05-05 13:53:00,
2013-05-05 07:08:00,35.6,35.1,30.07,SSW,202,0.0,-999.0,98,-99.99,,,0.44,Acu-Link.com,2013-05-05 14:08:00,
2013-05-05 07:24:00,39.2,38.7,30.07,South,180,0.0,-999.0,98,-99.99,,,0.44,Acu-Link.com,2013-05-05 14:24:00,
2013-05-05 07:39:00,39.2,38.7,30.07,SSW,202,0.0,-999.0,98,-99.99,,,0.44,Acu-Link.com,2013-05-05 14:39:00,
2013-05-05 07:54:00,41.0,40.5,30.07,South,180,0.0,-999.0,98,-99.99,,,0.44,Acu-Link.com,2013-05-05 14:54:00,
2013-05-05 08:09:00,42.8,40.1,30.07,SW,225,0.0,-999.0,90,-99.99,,,0.44,Acu-Link.com,2013-05-05 15:09:00,
2013-05-05 08:24:00,42.8,41.5,30.07,WNW,292,1.6,-999.0,95,-99.99,,,0.44,Acu-Link.com,2013-05-05 15:24:00,
2013-05-05 08:39:00,46.4,42.1,30.06,NW,315,2.0,-999.0,85,-99.99,,,0.44,Acu-Link.com,2013-05-05 15:39:00,
2013-05-05 08:54:00,50.0,42.7,30.06,NW,315,3.1,-999.0,76,-99.99,,,0.44,Acu-Link.com,2013-05-05 15:54:00,
2013-05-05 09:09:00,51.8,42.3,30.05,NW,315,2.0,-999.0,70,-99.99,,,0.44,Acu-Link.com,2013-05-05 16:09:00,
2013-05-05 09:24:00,53.6,42.5,30.05,NNW,337,3.1,-999.0,66,-99.99,,,0.44,Acu-Link.com,2013-05-05 16:24:00,
2013-05-05 09:39:00,55.4,42.2,30.04,SW,225,0.0,-999.0,61,-99.99,,,0.44,Acu-Link.com,2013-05-05 16:39:00,
2013-05-05 09:54:00,59.0,44.2,30.03,NW,315,2.0,-999.0,58,-99.99,,,0.44,Acu-Link.com,2013-05-05 16:54:00,
2013-05-05 10:09:00,60.8,44.5,30.03,South,180,3.1,-999.0,55,-99.99,,,0.44,Acu-Link.com,2013-05-05 17:09:00,
2013-05-05 10:25:00,60.8,43.1,30.03,West,270,1.6,-999.0,52,-99.99,,,0.44,Acu-Link.com,2013-05-05 17:25:00,
2013-05-05 10:40:00,62.6,43.7,30.02,SE,135,1.1,-999.0,50,-99.99,,,0.44,Acu-Link.com,2013-05-05 17:40:00,
2013-05-05 10:55:00,68.0,45.9,30.01,WNW,292,5.1,-999.0,45,-99.99,,,0.44,Acu-Link.com,2013-05-05 17:55:00,
2013-05-05 11:10:00,68.0,44.7,30.01,SW,225,2.0,-999.0,43,-99.99,,,0.44,Acu-Link.com,2013-05-05 18:10:00,
2013-05-05 11:25:00,69.8,42.3,30.00,NNW,337,4.0,-999.0,37,-99.99,,,0.44,Acu-Link.com,2013-05-05 18:25:00,
2013-05-05 11:41:00,71.6,40.2,30.00,NE,45,5.1,-999.0,32,-99.99,,,0.44,Acu-Link.com,2013-05-05 18:41:00,
2013-05-05 11:56:00,71.6,41.0,29.99,ENE,67,4.0,-999.0,33,-99.99,,,0.44,Acu-Link.com,2013-05-05 18:56:00,
2013-05-05 12:11:00,73.4,43.3,29.99,North,0,3.1,-999.0,34,-99.99,,,0.44,Acu-Link.com,2013-05-05 19:11:00,
2013-05-05 12:26:00,73.4,40.9,29.98,WSW,247,4.0,-999.0,31,-99.99,,,0.44,Acu-Link.com,2013-05-05 19:26:00,
2013-05-05 12:41:00,75.2,41.6,29.97,WNW,292,3.6,-999.0,30,-99.99,,,0.44,Acu-Link.com,2013-05-05 19:41:00,
2013-05-05 12:57:00,75.2,39.8,29.97,SSE,157,1.1,-999.0,28,-99.99,,,0.44,Acu-Link.com,2013-05-05 19:57:00,
2013-05-05 13:12:00,73.4,37.4,29.96,West,270,1.1,-999.0,27,-99.99,,,0.44,Acu-Link.com,2013-05-05 20:12:00,
2013-05-05 13:27:00,77.0,38.5,29.95,NW,315,3.6,-999.0,25,-99.99,,,0.44,Acu-Link.com,2013-05-05 20:27:00,
2013-05-05 13:42:00,77.0,38.5,29.95,NNW,337,3.1,-999.0,25,-99.99,,,0.44,Acu-Link.com,2013-05-05 20:42:00,
2013-05-05 13:57:00,77.0,36.4,29.94,NW,315,4.7,-999.0,23,-99.99,,,0.44,Acu-Link.com,2013-05-05 20:57:00,
2013-05-05 14:13:00,78.8,35.6,29.94,NNW,337,2.0,-999.0,21,-99.99,,,0.44,Acu-Link.com,2013-05-05 21:13:00,
2013-05-05 14:28:00,78.8,31.7,29.93,NE,45,0.0,-999.0,18,-99.99,,,0.44,Acu-Link.com,2013-05-05 21:28:00,
2013-05-05 14:43:00,78.8,33.0,29.93,West,270,2.0,-999.0,19,-99.99,,,0.44,Acu-Link.com,2013-05-05 21:43:00,
2013-05-05 14:58:00,78.8,27.2,29.92,West,270,1.6,-999.0,15,-99.99,,,0.44,Acu-Link.com,2013-05-05 21:58:00,
2013-05-05 15:13:00,78.8,23.8,29.92,North,0,3.1,-999.0,13,-99.99,,,0.44,Acu-Link.com,2013-05-05 22:13:00,
2013-05-05 15:28:00,80.6,25.2,29.91,NNW,337,3.1,-999.0,13,-99.99,,,0.44,Acu-Link.com,2013-05-05 22:28:00,
2013-05-05 15:43:00,80.6,27.0,29.90,West,270,2.0,-999.0,14,-99.99,,,0.44,Acu-Link.com,2013-05-05 22:43:00,
2013-05-05 15:58:00,80.6,25.2,29.89,SSE,157,3.6,-999.0,13,-99.99,,,0.44,Acu-Link.com,2013-05-05 22:58:00,
2013-05-05 16:13:00,80.6,27.0,29.89,South,180,3.1,-999.0,14,-99.99,,,0.44,Acu-Link.com,2013-05-05 23:13:00,
2013-05-05 16:28:00,80.6,23.3,29.88,NE,45,3.6,-999.0,12,-99.99,,,0.44,Acu-Link.com,2013-05-05 23:28:00,
2013-05-05 16:43:00,80.6,23.3,29.88,NW,315,2.0,-999.0,12,-99.99,,,0.44,Acu-Link.com,2013-05-05 23:43:00,
2013-05-05 16:59:00,80.6,23.3,29.87,ESE,112,1.6,-999.0,12,-99.99,,,0.44,Acu-Link.com,2013-05-05 23:59:00,
2013-05-05 17:14:00,80.6,23.3,29.87,SSE,157,2.7,-999.0,12,-99.99,,,0.44,Acu-Link.com,2013-05-06 00:14:00,
2013-05-05 17:29:00,80.6,23.3,29.86,ENE,67,0.0,-999.0,12,-99.99,,,0.44,Acu-Link.com,2013-05-06 00:29:00,
2013-05-05 17:44:00,82.4,24.7,29.86,West,270,4.0,-999.0,12,-99.99,,,0.44,Acu-Link.com,2013-05-06 00:44:00,
2013-05-05 17:59:00,82.4,22.6,29.86,NNW,337,3.1,-999.0,11,-99.99,,,0.44,Acu-Link.com,2013-05-06 00:59:00,
2013-05-05 18:14:00,78.8,21.9,29.86,NE,45,1.6,-999.0,12,-99.99,,,0.44,Acu-Link.com,2013-05-06 01:14:00,
2013-05-05 18:29:00,77.0,20.5,29.85,West,270,2.0,-999.0,12,-99.99,,,0.44,Acu-Link.com,2013-05-06 01:29:00,
2013-05-05 18:44:00,75.2,21.0,29.85,South,180,0.0,-999.0,13,-99.99,,,0.44,Acu-Link.com,2013-05-06 01:44:00,
2013-05-05 18:59:00,73.4,24.5,29.85,NNW,337,0.0,-999.0,16,-99.99,,,0.44,Acu-Link.com,2013-05-06 01:59:00,
2013-05-05 19:14:00,73.4,28.6,29.85,NE,45,0.0,-999.0,19,-99.99,,,0.44,Acu-Link.com,2013-05-06 02:14:00,
2013-05-05 19:29:00,71.6,28.4,29.84,NE,45,0.0,-999.0,20,-99.99,,,0.44,Acu-Link.com,2013-05-06 02:29:00,
2013-05-05 19:44:00,71.6,30.7,29.84,West,270,0.0,-999.0,22,-99.99,,,0.44,Acu-Link.com,2013-05-06 02:44:00,
2013-05-05 19:59:00,69.8,30.3,29.84,NE,45,0.0,-999.0,23,-99.99,,,0.44,Acu-Link.com,2013-05-06 02:59:00,
2013-05-05 20:14:00,68.0,30.9,29.84,NE,45,0.0,-999.0,25,-99.99,,,0.44,Acu-Link.com,2013-05-06 03:14:00,
2013-05-05 20:30:00,66.2,31.2,29.84,NE,45,1.1,-999.0,27,-99.99,,,0.44,Acu-Link.com,2013-05-06 03:30:00,
2013-05-05 20:45:00,64.4,30.6,29.84,NE,45,0.0,-999.0,28,-99.99,,,0.44,Acu-Link.com,2013-05-06 03:45:00,
2013-05-05 21:00:00,64.4,30.6,29.85,NE,45,0.0,-999.0,28,-99.99,,,0.44,Acu-Link.com,2013-05-06 04:00:00,
2013-05-05 21:15:00,62.6,30.7,29.85,NNE,22,0.0,-999.0,30,-99.99,,,0.44,Acu-Link.com,2013-05-06 04:15:00,
2013-05-05 21:30:00,60.8,32.3,29.85,South,180,0.0,-999.0,34,-99.99,,,0.44,Acu-Link.com,2013-05-06 04:30:00,
2013-05-05 21:45:00,59.0,33.4,29.85,ESE,112,0.0,-999.0,38,-99.99,,,0.44,Acu-Link.com,2013-05-06 04:45:00,
2013-05-05 22:00:00,55.4,32.1,29.85,ESE,112,0.0,-999.0,41,-99.99,,,0.44,Acu-Link.com,2013-05-06 05:00:00,
2013-05-05 22:15:00,55.4,36.0,29.85,East,90,0.0,-999.0,48,-99.99,,,0.44,Acu-Link.com,2013-05-06 05:15:00,
2013-05-05 22:30:00,53.6,37.4,29.85,East,90,0.0,-999.0,54,-99.99,,,0.44,Acu-Link.com,2013-05-06 05:30:00,
2013-05-05 22:45:00,51.8,37.1,29.85,ESE,112,0.0,-999.0,57,-99.99,,,0.44,Acu-Link.com,2013-05-06 05:45:00,
2013-05-05 23:01:00,51.8,37.5,29.85,ESE,112,0.0,-999.0,58,-99.99,,,0.44,Acu-Link.com,2013-05-06 06:01:00,
2013-05-05 23:16:00,50.0,37.9,29.85,ENE,67,0.0,-999.0,63,-99.99,,,0.44,Acu-Link.com,2013-05-06 06:16:00,
2013-05-05 23:31:00,50.0,38.7,29.85,ESE,112,0.0,-999.0,65,-99.99,,,0.44,Acu-Link.com,2013-05-06 06:31:00,
2013-05-05 23:46:00,50.0,39.1,29.85,ESE,112,0.0,-999.0,66,-99.99,,,0.44,Acu-Link.com,2013-05-06 06:46:00,